sensor_id;sensor_type;location;lat;lon;timestamp;temperature;humidity
37378;DHT22;23248;48.120;14.854;2022-11-20T00:01:33;0.30;99.90
37378;DHT22;23248;48.120;14.854;2022-11-20T00:03:59;0.40;99.90
37378;DHT22;23248;48.120;14.854;2022-11-20T00:06:25;0.40;99.90
37378;DHT22;23248;48.120;14.854;2022-11-20T00:08:52;0.30;99.90
37378;DHT22;23248;48.120;14.854;2022-11-20T00:11:19;0.40;99.90
37378;DHT22;23248;48.120;14.854;2022-11-20T00:13:47;0.30;99.90
37378;DHT22;23248;48.120;14.854;2022-11-20T00:16:14;0.30;99.90
37378;DHT22;23248;48.120;14.854;2022-11-20T00:18:39;0.30;99.90
37378;DHT22;23248;48.120;14.854;2022-11-20T00:21:11;0.30;99.90
37378;DHT22;23248;48.120;14.854;2022-11-20T00:23:37;0.40;99.90
37378;DHT22;23248;48.120;14.854;2022-11-20T00:26:03;0.40;99.90
37378;DHT22;23248;48.120;14.854;2022-11-20T00:28:29;0.30;99.90
37378;DHT22;23248;48.120;14.854;2022-11-20T00:31:10;0.30;99.90
37378;DHT22;23248;48.120;14.854;2022-11-20T00:33:36;0.30;99.90
37378;DHT22;23248;48.120;14.854;2022-11-20T00:36:05;0.30;99.90
37378;DHT22;23248;48.120;14.854;2022-11-20T00:38:31;0.30;99.90
37378;DHT22;23248;48.120;14.854;2022-11-20T00:40:57;0.40;99.90
37378;DHT22;23248;48.120;14.854;2022-11-20T00:43:23;0.40;99.90
37378;DHT22;23248;48.120;14.854;2022-11-20T00:45:50;0.40;99.90
37378;DHT22;23248;48.120;14.854;2022-11-20T00:48:15;0.40;99.90
37378;DHT22;23248;48.120;14.854;2022-11-20T00:50:41;0.30;99.90
37378;DHT22;23248;48.120;14.854;2022-11-20T00:53:07;0.30;99.90
37378;DHT22;23248;48.120;14.854;2022-11-20T00:55:32;0.40;99.90
37378;DHT22;23248;48.120;14.854;2022-11-20T00:57:58;0.40;99.90
37378;DHT22;23248;48.120;14.854;2022-11-20T01:00:23;0.40;99.90
37378;DHT22;23248;48.120;14.854;2022-11-20T01:02:49;0.40;99.90
37378;DHT22;23248;48.120;14.854;2022-11-20T01:05:14;0.50;99.90
37378;DHT22;23248;48.120;14.854;2022-11-20T01:07:40;0.40;99.90
37378;DHT22;23248;48.120;14.854;2022-11-20T01:10:06;0.50;99.90
37378;DHT22;23248;48.120;14.854;2022-11-20T01:12:31;0.50;99.90
37378;DHT22;23248;48.120;14.854;2022-11-20T01:14:57;0.50;99.90
37378;DHT22;23248;48.120;14.854;2022-11-20T01:17:23;0.50;99.90
37378;DHT22;23248;48.120;14.854;2022-11-20T01:19:49;0.50;99.90
37378;DHT22;23248;48.120;14.854;2022-11-20T01:22:15;0.50;99.90
37378;DHT22;23248;48.120;14.854;2022-11-20T01:24:40;0.50;99.90
37378;DHT22;23248;48.120;14.854;2022-11-20T01:27:06;0.40;99.90
37378;DHT22;23248;48.120;14.854;2022-11-20T01:29:31;0.40;99.90
37378;DHT22;23248;48.120;14.854;2022-11-20T01:31:57;0.40;99.90
37378;DHT22;23248;48.120;14.854;2022-11-20T01:34:22;0.40;99.90
37378;DHT22;23248;48.120;14.854;2022-11-20T01:36:48;0.30;99.90
37378;DHT22;23248;48.120;14.854;2022-11-20T01:39:16;0.40;99.90
37378;DHT22;23248;48.120;14.854;2022-11-20T01:41:42;0.40;99.90
37378;DHT22;23248;48.120;14.854;2022-11-20T01:47:12;0.50;99.90
37378;DHT22;23248;48.120;14.854;2022-11-20T01:49:43;0.50;99.90
37378;DHT22;23248;48.120;14.854;2022-11-20T01:52:15;0.50;99.90
37378;DHT22;23248;48.120;14.854;2022-11-20T01:54:44;0.60;99.90
37378;DHT22;23248;48.120;14.854;2022-11-20T01:57:12;0.60;99.90
37378;DHT22;23248;48.120;14.854;2022-11-20T01:59:39;0.60;99.90
37378;DHT22;23248;48.120;14.854;2022-11-20T02:02:07;0.60;99.90
37378;DHT22;23248;48.120;14.854;2022-11-20T02:04:32;0.60;99.90
37378;DHT22;23248;48.120;14.854;2022-11-20T02:07:02;0.70;99.90
37378;DHT22;23248;48.120;14.854;2022-11-20T02:09:30;0.60;99.90
37378;DHT22;23248;48.120;14.854;2022-11-20T02:11:55;0.60;99.90
37378;DHT22;23248;48.120;14.854;2022-11-20T02:14:21;0.60;99.90
37378;DHT22;23248;48.120;14.854;2022-11-20T02:16:48;0.60;99.90
37378;DHT22;23248;48.120;14.854;2022-11-20T02:19:24;0.60;99.90
37378;DHT22;23248;48.120;14.854;2022-11-20T02:22:02;0.60;99.90
37378;DHT22;23248;48.120;14.854;2022-11-20T02:24:29;0.60;99.90
37378;DHT22;23248;48.120;14.854;2022-11-20T02:27:02;0.70;99.90
37378;DHT22;23248;48.120;14.854;2022-11-20T02:31:57;0.70;99.90
37378;DHT22;23248;48.120;14.854;2022-11-20T02:34:23;0.70;99.90
37378;DHT22;23248;48.120;14.854;2022-11-20T02:36:49;0.70;99.90
37378;DHT22;23248;48.120;14.854;2022-11-20T02:39:16;0.70;99.90
37378;DHT22;23248;48.120;14.854;2022-11-20T02:41:44;0.80;99.90
37378;DHT22;23248;48.120;14.854;2022-11-20T02:44:09;0.80;99.90
37378;DHT22;23248;48.120;14.854;2022-11-20T02:46:35;0.70;99.90
37378;DHT22;23248;48.120;14.854;2022-11-20T02:49:01;0.70;99.90
37378;DHT22;23248;48.120;14.854;2022-11-20T02:51:27;0.70;99.90
37378;DHT22;23248;48.120;14.854;2022-11-20T02:53:53;0.70;99.90
37378;DHT22;23248;48.120;14.854;2022-11-20T02:56:18;0.60;99.90
37378;DHT22;23248;48.120;14.854;2022-11-20T02:58:44;0.60;99.90
37378;DHT22;23248;48.120;14.854;2022-11-20T03:01:10;0.60;99.90
37378;DHT22;23248;48.120;14.854;2022-11-20T03:03:35;0.60;99.90
37378;DHT22;23248;48.120;14.854;2022-11-20T03:06:01;0.60;99.90
37378;DHT22;23248;48.120;14.854;2022-11-20T03:08:26;0.50;99.90
37378;DHT22;23248;48.120;14.854;2022-11-20T03:10:52;0.60;99.90
37378;DHT22;23248;48.120;14.854;2022-11-20T03:13:18;0.60;99.90
37378;DHT22;23248;48.120;14.854;2022-11-20T03:15:43;0.70;99.90
37378;DHT22;23248;48.120;14.854;2022-11-20T03:18:09;0.70;99.90
37378;DHT22;23248;48.120;14.854;2022-11-20T03:20:34;0.70;99.90
37378;DHT22;23248;48.120;14.854;2022-11-20T03:23:00;0.60;99.90
37378;DHT22;23248;48.120;14.854;2022-11-20T03:25:25;0.70;99.90
37378;DHT22;23248;48.120;14.854;2022-11-20T03:27:51;0.70;99.90
37378;DHT22;23248;48.120;14.854;2022-11-20T03:30:17;0.70;99.90
37378;DHT22;23248;48.120;14.854;2022-11-20T03:32:42;0.70;99.90
37378;DHT22;23248;48.120;14.854;2022-11-20T03:35:08;0.70;99.90
37378;DHT22;23248;48.120;14.854;2022-11-20T03:37:34;0.80;99.90
37378;DHT22;23248;48.120;14.854;2022-11-20T03:39:59;0.80;99.90
37378;DHT22;23248;48.120;14.854;2022-11-20T03:42:25;0.80;99.90
37378;DHT22;23248;48.120;14.854;2022-11-20T03:45:09;0.80;99.90
37378;DHT22;23248;48.120;14.854;2022-11-20T03:47:34;0.80;99.90
37378;DHT22;23248;48.120;14.854;2022-11-20T03:50:00;0.80;99.90
37378;DHT22;23248;48.120;14.854;2022-11-20T03:52:25;0.80;99.90
37378;DHT22;23248;48.120;14.854;2022-11-20T03:54:51;0.80;99.90
37378;DHT22;23248;48.120;14.854;2022-11-20T03:57:16;0.80;99.90
37378;DHT22;23248;48.120;14.854;2022-11-20T03:59:42;0.90;99.90
37378;DHT22;23248;48.120;14.854;2022-11-20T04:02:07;0.90;99.90
37378;DHT22;23248;48.120;14.854;2022-11-20T04:04:33;0.90;99.90
37378;DHT22;23248;48.120;14.854;2022-11-20T04:06:59;0.90;99.90
37378;DHT22;23248;48.120;14.854;2022-11-20T04:09:24;0.90;99.90
37378;DHT22;23248;48.120;14.854;2022-11-20T04:11:50;0.90;99.90
37378;DHT22;23248;48.120;14.854;2022-11-20T04:14:15;0.80;99.90
37378;DHT22;23248;48.120;14.854;2022-11-20T04:16:41;0.90;99.90
37378;DHT22;23248;48.120;14.854;2022-11-20T04:19:09;0.90;99.90
37378;DHT22;23248;48.120;14.854;2022-11-20T04:21:35;1.00;99.90
37378;DHT22;23248;48.120;14.854;2022-11-20T04:24:01;0.90;99.90
37378;DHT22;23248;48.120;14.854;2022-11-20T04:26:27;0.90;99.90
37378;DHT22;23248;48.120;14.854;2022-11-20T04:28:53;0.90;99.90
37378;DHT22;23248;48.120;14.854;2022-11-20T04:31:19;0.90;99.90
37378;DHT22;23248;48.120;14.854;2022-11-20T04:33:45;0.90;99.90
37378;DHT22;23248;48.120;14.854;2022-11-20T04:36:15;0.90;99.90
37378;DHT22;23248;48.120;14.854;2022-11-20T04:38:41;0.90;99.90
37378;DHT22;23248;48.120;14.854;2022-11-20T04:41:07;0.80;99.90
37378;DHT22;23248;48.120;14.854;2022-11-20T04:43:33;0.80;99.90
37378;DHT22;23248;48.120;14.854;2022-11-20T04:45:59;0.80;99.90
37378;DHT22;23248;48.120;14.854;2022-11-20T04:48:24;0.90;99.90
37378;DHT22;23248;48.120;14.854;2022-11-20T04:50:51;0.90;99.90
37378;DHT22;23248;48.120;14.854;2022-11-20T04:53:16;0.80;99.90
37378;DHT22;23248;48.120;14.854;2022-11-20T04:55:42;0.80;99.90
37378;DHT22;23248;48.120;14.854;2022-11-20T04:58:08;0.70;99.90
37378;DHT22;23248;48.120;14.854;2022-11-20T05:00:33;0.80;99.90
37378;DHT22;23248;48.120;14.854;2022-11-20T05:02:59;0.80;99.90
37378;DHT22;23248;48.120;14.854;2022-11-20T05:05:24;0.80;99.90
37378;DHT22;23248;48.120;14.854;2022-11-20T05:07:50;0.90;99.90
37378;DHT22;23248;48.120;14.854;2022-11-20T05:10:15;0.90;99.90
37378;DHT22;23248;48.120;14.854;2022-11-20T05:12:41;0.90;99.90
37378;DHT22;23248;48.120;14.854;2022-11-20T05:15:07;0.90;99.90
37378;DHT22;23248;48.120;14.854;2022-11-20T05:17:32;0.90;99.90
37378;DHT22;23248;48.120;14.854;2022-11-20T05:19:58;0.90;99.90
37378;DHT22;23248;48.120;14.854;2022-11-20T05:22:24;1.00;99.90
37378;DHT22;23248;48.120;14.854;2022-11-20T05:24:49;0.90;99.90
37378;DHT22;23248;48.120;14.854;2022-11-20T05:27:15;1.00;99.90
37378;DHT22;23248;48.120;14.854;2022-11-20T05:29:40;1.00;99.90
37378;DHT22;23248;48.120;14.854;2022-11-20T05:32:06;1.10;99.90
37378;DHT22;23248;48.120;14.854;2022-11-20T05:34:35;1.10;99.90
37378;DHT22;23248;48.120;14.854;2022-11-20T05:37:00;1.00;99.90
37378;DHT22;23248;48.120;14.854;2022-11-20T05:39:26;1.10;99.90
37378;DHT22;23248;48.120;14.854;2022-11-20T05:41:52;1.00;99.90
37378;DHT22;23248;48.120;14.854;2022-11-20T05:44:37;1.10;99.90
37378;DHT22;23248;48.120;14.854;2022-11-20T05:47:03;1.10;99.90
37378;DHT22;23248;48.120;14.854;2022-11-20T05:49:28;1.10;99.90
37378;DHT22;23248;48.120;14.854;2022-11-20T05:51:54;1.10;99.90
37378;DHT22;23248;48.120;14.854;2022-11-20T05:54:19;1.20;99.90
37378;DHT22;23248;48.120;14.854;2022-11-20T05:56:45;1.10;99.90
37378;DHT22;23248;48.120;14.854;2022-11-20T05:59:10;1.10;99.90
37378;DHT22;23248;48.120;14.854;2022-11-20T06:01:36;1.00;99.90
37378;DHT22;23248;48.120;14.854;2022-11-20T06:04:01;1.00;99.90
37378;DHT22;23248;48.120;14.854;2022-11-20T06:06:27;1.00;99.90
37378;DHT22;23248;48.120;14.854;2022-11-20T06:08:53;1.10;99.90
37378;DHT22;23248;48.120;14.854;2022-11-20T06:11:19;1.10;99.90
37378;DHT22;23248;48.120;14.854;2022-11-20T06:13:45;1.10;99.90
37378;DHT22;23248;48.120;14.854;2022-11-20T06:16:11;1.00;99.90
37378;DHT22;23248;48.120;14.854;2022-11-20T06:18:36;1.00;99.90
37378;DHT22;23248;48.120;14.854;2022-11-20T06:23:31;1.00;99.90
37378;DHT22;23248;48.120;14.854;2022-11-20T06:26:00;1.00;99.90
37378;DHT22;23248;48.120;14.854;2022-11-20T06:28:26;1.00;99.90
37378;DHT22;23248;48.120;14.854;2022-11-20T06:30:52;1.00;99.90
37378;DHT22;23248;48.120;14.854;2022-11-20T06:33:17;1.00;99.90
37378;DHT22;23248;48.120;14.854;2022-11-20T06:35:43;1.10;99.90
37378;DHT22;23248;48.120;14.854;2022-11-20T06:38:08;1.10;99.90
37378;DHT22;23248;48.120;14.854;2022-11-20T06:40:34;1.20;99.90
37378;DHT22;23248;48.120;14.854;2022-11-20T06:42:59;1.30;99.90
37378;DHT22;23248;48.120;14.854;2022-11-20T06:45:25;1.30;99.90
37378;DHT22;23248;48.120;14.854;2022-11-20T06:47:50;1.30;99.90
37378;DHT22;23248;48.120;14.854;2022-11-20T06:50:16;1.30;99.90
37378;DHT22;23248;48.120;14.854;2022-11-20T06:52:41;1.20;99.90
37378;DHT22;23248;48.120;14.854;2022-11-20T06:55:07;1.20;99.90
37378;DHT22;23248;48.120;14.854;2022-11-20T06:57:33;1.20;99.90
37378;DHT22;23248;48.120;14.854;2022-11-20T06:59:58;1.30;99.90
37378;DHT22;23248;48.120;14.854;2022-11-20T07:02:24;1.30;99.90
37378;DHT22;23248;48.120;14.854;2022-11-20T07:04:49;1.40;99.90
37378;DHT22;23248;48.120;14.854;2022-11-20T07:07:15;1.40;99.90
37378;DHT22;23248;48.120;14.854;2022-11-20T07:09:40;1.40;99.90
37378;DHT22;23248;48.120;14.854;2022-11-20T07:12:06;1.50;99.90
37378;DHT22;23248;48.120;14.854;2022-11-20T07:14:31;1.40;99.90
37378;DHT22;23248;48.120;14.854;2022-11-20T07:16:57;1.40;99.90
37378;DHT22;23248;48.120;14.854;2022-11-20T07:19:22;1.40;99.90
37378;DHT22;23248;48.120;14.854;2022-11-20T07:21:48;1.40;99.90
37378;DHT22;23248;48.120;14.854;2022-11-20T07:24:13;1.40;99.90
37378;DHT22;23248;48.120;14.854;2022-11-20T07:26:39;1.40;99.90
37378;DHT22;23248;48.120;14.854;2022-11-20T07:29:05;1.40;99.90
37378;DHT22;23248;48.120;14.854;2022-11-20T07:31:30;1.40;99.90
37378;DHT22;23248;48.120;14.854;2022-11-20T07:33:56;1.40;99.90
37378;DHT22;23248;48.120;14.854;2022-11-20T07:36:21;1.40;99.90
37378;DHT22;23248;48.120;14.854;2022-11-20T07:38:47;1.40;99.90
37378;DHT22;23248;48.120;14.854;2022-11-20T07:41:12;1.40;99.90
37378;DHT22;23248;48.120;14.854;2022-11-20T07:43:38;1.40;99.90
37378;DHT22;23248;48.120;14.854;2022-11-20T07:46:03;1.40;99.90
37378;DHT22;23248;48.120;14.854;2022-11-20T07:48:29;1.40;99.90
37378;DHT22;23248;48.120;14.854;2022-11-20T07:50:55;1.50;99.90
37378;DHT22;23248;48.120;14.854;2022-11-20T07:53:21;1.50;99.90
37378;DHT22;23248;48.120;14.854;2022-11-20T07:55:47;1.50;99.90
37378;DHT22;23248;48.120;14.854;2022-11-20T07:58:12;1.50;99.90
37378;DHT22;23248;48.120;14.854;2022-11-20T08:00:39;1.50;99.90
37378;DHT22;23248;48.120;14.854;2022-11-20T08:03:05;1.50;99.90
37378;DHT22;23248;48.120;14.854;2022-11-20T08:05:31;1.60;99.90
37378;DHT22;23248;48.120;14.854;2022-11-20T08:07:56;1.60;99.90
37378;DHT22;23248;48.120;14.854;2022-11-20T08:10:22;1.70;99.90
37378;DHT22;23248;48.120;14.854;2022-11-20T08:12:48;1.80;99.90
37378;DHT22;23248;48.120;14.854;2022-11-20T08:15:32;1.80;99.90
37378;DHT22;23248;48.120;14.854;2022-11-20T08:18:01;1.80;99.90
37378;DHT22;23248;48.120;14.854;2022-11-20T08:20:27;1.80;99.90
37378;DHT22;23248;48.120;14.854;2022-11-20T08:22:56;1.80;99.90
37378;DHT22;23248;48.120;14.854;2022-11-20T08:25:22;1.80;99.90
37378;DHT22;23248;48.120;14.854;2022-11-20T08:27:48;1.90;99.90
37378;DHT22;23248;48.120;14.854;2022-11-20T08:30:13;2.00;99.90
37378;DHT22;23248;48.120;14.854;2022-11-20T08:32:39;2.00;99.90
37378;DHT22;23248;48.120;14.854;2022-11-20T08:35:04;2.00;99.90
37378;DHT22;23248;48.120;14.854;2022-11-20T08:37:30;2.10;99.90
37378;DHT22;23248;48.120;14.854;2022-11-20T08:39:55;2.10;99.90
37378;DHT22;23248;48.120;14.854;2022-11-20T08:42:22;2.10;99.90
37378;DHT22;23248;48.120;14.854;2022-11-20T08:44:47;2.20;99.90
37378;DHT22;23248;48.120;14.854;2022-11-20T08:47:13;2.20;99.90
37378;DHT22;23248;48.120;14.854;2022-11-20T08:49:38;2.40;99.90
37378;DHT22;23248;48.120;14.854;2022-11-20T08:52:04;2.30;99.90
37378;DHT22;23248;48.120;14.854;2022-11-20T08:54:30;2.30;99.90
37378;DHT22;23248;48.120;14.854;2022-11-20T08:56:56;2.20;99.90
37378;DHT22;23248;48.120;14.854;2022-11-20T08:59:21;2.20;99.90
37378;DHT22;23248;48.120;14.854;2022-11-20T09:01:47;2.20;99.90
37378;DHT22;23248;48.120;14.854;2022-11-20T09:04:13;2.20;99.90
37378;DHT22;23248;48.120;14.854;2022-11-20T09:06:39;2.20;99.90
37378;DHT22;23248;48.120;14.854;2022-11-20T09:09:05;2.30;99.90
37378;DHT22;23248;48.120;14.854;2022-11-20T09:11:31;2.20;99.90
37378;DHT22;23248;48.120;14.854;2022-11-20T09:13:56;2.30;99.90
37378;DHT22;23248;48.120;14.854;2022-11-20T09:16:22;2.30;99.90
37378;DHT22;23248;48.120;14.854;2022-11-20T09:18:49;2.30;99.90
37378;DHT22;23248;48.120;14.854;2022-11-20T09:21:15;2.30;99.90
37378;DHT22;23248;48.120;14.854;2022-11-20T09:23:40;2.30;99.90
37378;DHT22;23248;48.120;14.854;2022-11-20T09:26:10;2.30;99.90
37378;DHT22;23248;48.120;14.854;2022-11-20T09:28:36;2.40;99.90
37378;DHT22;23248;48.120;14.854;2022-11-20T09:31:05;2.50;99.90
37378;DHT22;23248;48.120;14.854;2022-11-20T09:33:31;2.40;99.90
37378;DHT22;23248;48.120;14.854;2022-11-20T09:35:56;2.40;99.90
37378;DHT22;23248;48.120;14.854;2022-11-20T09:38:22;2.40;99.90
37378;DHT22;23248;48.120;14.854;2022-11-20T09:40:51;2.40;99.90
37378;DHT22;23248;48.120;14.854;2022-11-20T09:43:28;2.50;99.90
37378;DHT22;23248;48.120;14.854;2022-11-20T09:48:48;2.60;99.90
37378;DHT22;23248;48.120;14.854;2022-11-20T09:56:24;2.40;99.90
37378;DHT22;23248;48.120;14.854;2022-11-20T09:58:52;2.40;99.90
37378;DHT22;23248;48.120;14.854;2022-11-20T10:01:20;2.30;99.90
37378;DHT22;23248;48.120;14.854;2022-11-20T10:06:15;2.50;99.90
37378;DHT22;23248;48.120;14.854;2022-11-20T10:08:47;2.70;99.90
37378;DHT22;23248;48.120;14.854;2022-11-20T10:21:30;4.20;99.90
37378;DHT22;23248;48.120;14.854;2022-11-20T10:26:58;4.70;99.90
37378;DHT22;23248;48.120;14.854;2022-11-20T10:29:29;4.80;99.90
37378;DHT22;23248;48.120;14.854;2022-11-20T10:32:00;4.70;99.90
37378;DHT22;23248;48.120;14.854;2022-11-20T10:34:28;4.70;99.90
37378;DHT22;23248;48.120;14.854;2022-11-20T10:36:57;4.70;99.90
37378;DHT22;23248;48.120;14.854;2022-11-20T10:39:35;4.80;99.90
37378;DHT22;23248;48.120;14.854;2022-11-20T10:42:02;4.70;99.90
37378;DHT22;23248;48.120;14.854;2022-11-20T10:44:28;4.90;99.90
37378;DHT22;23248;48.120;14.854;2022-11-20T10:47:16;5.00;99.90
37378;DHT22;23248;48.120;14.854;2022-11-20T10:49:42;5.20;99.90
37378;DHT22;23248;48.120;14.854;2022-11-20T10:52:20;5.30;99.90
37378;DHT22;23248;48.120;14.854;2022-11-20T10:57:29;5.40;99.90
37378;DHT22;23248;48.120;14.854;2022-11-20T11:00:05;5.40;99.90
37378;DHT22;23248;48.120;14.854;2022-11-20T11:02:35;5.40;99.90
37378;DHT22;23248;48.120;14.854;2022-11-20T11:05:08;5.40;99.90
37378;DHT22;23248;48.120;14.854;2022-11-20T11:07:36;5.40;99.90
37378;DHT22;23248;48.120;14.854;2022-11-20T11:10:12;5.50;99.90
37378;DHT22;23248;48.120;14.854;2022-11-20T11:12:43;5.70;99.90
37378;DHT22;23248;48.120;14.854;2022-11-20T11:15:11;5.80;99.90
37378;DHT22;23248;48.120;14.854;2022-11-20T11:17:38;5.90;99.90
37378;DHT22;23248;48.120;14.854;2022-11-20T11:20:15;5.80;99.90
37378;DHT22;23248;48.120;14.854;2022-11-20T11:22:50;5.80;99.90
37378;DHT22;23248;48.120;14.854;2022-11-20T11:25:23;5.80;99.90
37378;DHT22;23248;48.120;14.854;2022-11-20T11:27:49;5.90;99.90
37378;DHT22;23248;48.120;14.854;2022-11-20T11:30:16;6.00;99.90
37378;DHT22;23248;48.120;14.854;2022-11-20T11:32:42;6.10;99.90
37378;DHT22;23248;48.120;14.854;2022-11-20T11:38:04;6.40;99.90
37378;DHT22;23248;48.120;14.854;2022-11-20T11:40:31;6.80;99.90
37378;DHT22;23248;48.120;14.854;2022-11-20T11:43:02;7.10;99.90
37378;DHT22;23248;48.120;14.854;2022-11-20T11:45:29;7.10;99.90
37378;DHT22;23248;48.120;14.854;2022-11-20T11:47:58;6.90;99.90
37378;DHT22;23248;48.120;14.854;2022-11-20T11:50:26;6.70;99.90
37378;DHT22;23248;48.120;14.854;2022-11-20T11:55:43;6.40;99.90
37378;DHT22;23248;48.120;14.854;2022-11-20T12:00:36;6.00;99.90
37378;DHT22;23248;48.120;14.854;2022-11-20T12:03:27;5.90;99.90
37378;DHT22;23248;48.120;14.854;2022-11-20T12:05:54;5.80;99.90
37378;DHT22;23248;48.120;14.854;2022-11-20T12:08:23;5.60;99.90
37378;DHT22;23248;48.120;14.854;2022-11-20T12:10:55;5.50;99.90
37378;DHT22;23248;48.120;14.854;2022-11-20T12:16:02;5.50;99.90
37378;DHT22;23248;48.120;14.854;2022-11-20T12:18:28;5.50;99.90
37378;DHT22;23248;48.120;14.854;2022-11-20T12:20:58;5.50;99.90
37378;DHT22;23248;48.120;14.854;2022-11-20T12:25:52;5.50;99.90
37378;DHT22;23248;48.120;14.854;2022-11-20T12:30:58;5.60;99.90
37378;DHT22;23248;48.120;14.854;2022-11-20T12:52:41;5.60;99.90
37378;DHT22;23248;48.120;14.854;2022-11-20T12:55:12;5.60;99.90
37378;DHT22;23248;48.120;14.854;2022-11-20T13:02:40;5.50;99.90
37378;DHT22;23248;48.120;14.854;2022-11-20T13:07:39;5.40;99.90
37378;DHT22;23248;48.120;14.854;2022-11-20T13:10:06;5.40;99.90
37378;DHT22;23248;48.120;14.854;2022-11-20T13:15:34;5.20;99.90
37378;DHT22;23248;48.120;14.854;2022-11-20T13:18:01;5.20;99.90
37378;DHT22;23248;48.120;14.854;2022-11-20T13:20:28;5.10;99.90
37378;DHT22;23248;48.120;14.854;2022-11-20T13:22:55;5.10;99.90
37378;DHT22;23248;48.120;14.854;2022-11-20T13:25:32;5.10;99.90
37378;DHT22;23248;48.120;14.854;2022-11-20T13:27:59;5.10;99.90
37378;DHT22;23248;48.120;14.854;2022-11-20T13:30:25;5.10;99.90
37378;DHT22;23248;48.120;14.854;2022-11-20T13:35:24;5.10;99.90
37378;DHT22;23248;48.120;14.854;2022-11-20T13:37:58;5.10;99.90
37378;DHT22;23248;48.120;14.854;2022-11-20T13:40:24;5.00;99.90
37378;DHT22;23248;48.120;14.854;2022-11-20T13:45:23;5.00;99.90
37378;DHT22;23248;48.120;14.854;2022-11-20T13:47:50;5.00;99.90
37378;DHT22;23248;48.120;14.854;2022-11-20T13:50:16;4.90;99.90
37378;DHT22;23248;48.120;14.854;2022-11-20T13:52:55;4.90;99.90
37378;DHT22;23248;48.120;14.854;2022-11-20T13:55:38;5.00;99.90
37378;DHT22;23248;48.120;14.854;2022-11-20T14:00:57;5.00;99.90
37378;DHT22;23248;48.120;14.854;2022-11-20T14:03:23;5.00;99.90
37378;DHT22;23248;48.120;14.854;2022-11-20T14:05:52;5.00;99.90
37378;DHT22;23248;48.120;14.854;2022-11-20T14:08:24;5.00;99.90
37378;DHT22;23248;48.120;14.854;2022-11-20T14:10:51;5.00;99.90
37378;DHT22;23248;48.120;14.854;2022-11-20T14:13:27;5.00;99.90
37378;DHT22;23248;48.120;14.854;2022-11-20T14:15:56;5.00;99.90
37378;DHT22;23248;48.120;14.854;2022-11-20T14:18:22;5.00;99.90
37378;DHT22;23248;48.120;14.854;2022-11-20T14:20:49;4.90;99.90
37378;DHT22;23248;48.120;14.854;2022-11-20T14:23:27;4.90;99.90
37378;DHT22;23248;48.120;14.854;2022-11-20T14:25:53;5.00;99.90
37378;DHT22;23248;48.120;14.854;2022-11-20T14:28:25;5.00;99.90
37378;DHT22;23248;48.120;14.854;2022-11-20T14:30:52;5.00;99.90
37378;DHT22;23248;48.120;14.854;2022-11-20T14:33:18;5.00;99.90
37378;DHT22;23248;48.120;14.854;2022-11-20T14:35:48;4.90;99.90
37378;DHT22;23248;48.120;14.854;2022-11-20T14:38:16;4.90;99.90
37378;DHT22;23248;48.120;14.854;2022-11-20T14:40:44;4.80;99.90
37378;DHT22;23248;48.120;14.854;2022-11-20T14:43:25;4.80;99.90
37378;DHT22;23248;48.120;14.854;2022-11-20T14:46:08;4.90;99.90
37378;DHT22;23248;48.120;14.854;2022-11-20T14:48:47;4.90;99.90
37378;DHT22;23248;48.120;14.854;2022-11-20T14:51:27;5.00;99.90
37378;DHT22;23248;48.120;14.854;2022-11-20T14:53:53;5.00;99.90
37378;DHT22;23248;48.120;14.854;2022-11-20T14:56:24;5.00;99.90
37378;DHT22;23248;48.120;14.854;2022-11-20T14:58:57;5.00;99.90
37378;DHT22;23248;48.120;14.854;2022-11-20T15:01:29;4.90;99.90
37378;DHT22;23248;48.120;14.854;2022-11-20T15:06:27;4.90;99.90
37378;DHT22;23248;48.120;14.854;2022-11-20T15:08:54;4.90;99.90
37378;DHT22;23248;48.120;14.854;2022-11-20T15:11:30;4.90;99.90
37378;DHT22;23248;48.120;14.854;2022-11-20T15:14:01;4.80;99.90
37378;DHT22;23248;48.120;14.854;2022-11-20T15:16:27;4.60;99.90
37378;DHT22;23248;48.120;14.854;2022-11-20T15:18:53;4.60;99.90
37378;DHT22;23248;48.120;14.854;2022-11-20T15:21:20;4.50;99.90
37378;DHT22;23248;48.120;14.854;2022-11-20T15:23:46;4.40;99.90
37378;DHT22;23248;48.120;14.854;2022-11-20T15:26:13;4.40;99.90
37378;DHT22;23248;48.120;14.854;2022-11-20T15:28:40;4.40;99.90
37378;DHT22;23248;48.120;14.854;2022-11-20T15:31:06;4.40;99.90
37378;DHT22;23248;48.120;14.854;2022-11-20T15:33:32;4.40;99.90
37378;DHT22;23248;48.120;14.854;2022-11-20T15:35:58;4.40;99.90
37378;DHT22;23248;48.120;14.854;2022-11-20T15:38:24;4.40;99.90
37378;DHT22;23248;48.120;14.854;2022-11-20T15:40:50;4.40;99.90
37378;DHT22;23248;48.120;14.854;2022-11-20T15:43:16;4.30;99.90
37378;DHT22;23248;48.120;14.854;2022-11-20T15:45:45;4.30;99.90
37378;DHT22;23248;48.120;14.854;2022-11-20T15:50:45;4.20;99.90
37378;DHT22;23248;48.120;14.854;2022-11-20T15:53:11;4.20;99.90
37378;DHT22;23248;48.120;14.854;2022-11-20T15:55:37;4.20;99.90
37378;DHT22;23248;48.120;14.854;2022-11-20T15:58:03;4.20;99.90
37378;DHT22;23248;48.120;14.854;2022-11-20T16:00:29;4.20;99.90
37378;DHT22;23248;48.120;14.854;2022-11-20T16:02:54;4.10;99.90
37378;DHT22;23248;48.120;14.854;2022-11-20T16:05:28;4.20;99.90
37378;DHT22;23248;48.120;14.854;2022-11-20T16:07:54;4.10;99.90
37378;DHT22;23248;48.120;14.854;2022-11-20T16:10:20;4.20;99.90
37378;DHT22;23248;48.120;14.854;2022-11-20T16:12:46;4.20;99.90
37378;DHT22;23248;48.120;14.854;2022-11-20T16:15:30;4.20;99.90
37378;DHT22;23248;48.120;14.854;2022-11-20T16:18:12;4.10;99.90
37378;DHT22;23248;48.120;14.854;2022-11-20T16:20:38;4.20;99.90
37378;DHT22;23248;48.120;14.854;2022-11-20T16:23:05;4.20;99.90
37378;DHT22;23248;48.120;14.854;2022-11-20T16:25:31;4.20;99.90
37378;DHT22;23248;48.120;14.854;2022-11-20T16:27:57;4.10;99.90
37378;DHT22;23248;48.120;14.854;2022-11-20T16:30:23;4.10;99.90
37378;DHT22;23248;48.120;14.854;2022-11-20T16:32:49;4.10;99.90
37378;DHT22;23248;48.120;14.854;2022-11-20T16:35:14;4.20;99.90
37378;DHT22;23248;48.120;14.854;2022-11-20T16:37:40;4.20;99.90
37378;DHT22;23248;48.120;14.854;2022-11-20T16:40:07;4.30;99.90
37378;DHT22;23248;48.120;14.854;2022-11-20T16:42:33;4.20;99.90
37378;DHT22;23248;48.120;14.854;2022-11-20T16:44:59;4.20;99.90
37378;DHT22;23248;48.120;14.854;2022-11-20T16:47:25;4.10;99.90
37378;DHT22;23248;48.120;14.854;2022-11-20T16:49:51;4.10;99.90
37378;DHT22;23248;48.120;14.854;2022-11-20T16:52:17;4.10;99.90
37378;DHT22;23248;48.120;14.854;2022-11-20T16:54:43;4.10;99.90
37378;DHT22;23248;48.120;14.854;2022-11-20T16:57:08;4.10;99.90
37378;DHT22;23248;48.120;14.854;2022-11-20T16:59:34;4.20;99.90
37378;DHT22;23248;48.120;14.854;2022-11-20T17:02:00;4.20;99.90
37378;DHT22;23248;48.120;14.854;2022-11-20T17:04:26;4.30;99.90